sensor_id;sensor_type;location;lat;lon;timestamp;temperature;humidity
11221;DHT22;8517;53.546;10.104;2022-12-11T00:00:06;1.20;99.90
11221;DHT22;8517;53.546;10.104;2022-12-11T00:02:34;1.20;99.90
11221;DHT22;8517;53.546;10.104;2022-12-11T00:05:02;1.20;99.90
11221;DHT22;8517;53.546;10.104;2022-12-11T00:07:29;1.10;99.90
11221;DHT22;8517;53.546;10.104;2022-12-11T00:09:56;1.10;99.90
11221;DHT22;8517;53.546;10.104;2022-12-11T00:12:23;1.10;99.90
11221;DHT22;8517;53.546;10.104;2022-12-11T00:14:50;1.00;99.90
11221;DHT22;8517;53.546;10.104;2022-12-11T00:17:17;1.00;99.90
11221;DHT22;8517;53.546;10.104;2022-12-11T00:19:44;1.00;99.90
11221;DHT22;8517;53.546;10.104;2022-12-11T00:22:12;1.00;99.90
11221;DHT22;8517;53.546;10.104;2022-12-11T00:24:39;1.00;99.90
11221;DHT22;8517;53.546;10.104;2022-12-11T00:27:06;1.00;99.90
11221;DHT22;8517;53.546;10.104;2022-12-11T00:29:33;1.00;99.90
11221;DHT22;8517;53.546;10.104;2022-12-11T00:32:00;1.00;99.90
11221;DHT22;8517;53.546;10.104;2022-12-11T00:34:27;1.00;99.90
11221;DHT22;8517;53.546;10.104;2022-12-11T00:36:53;1.00;99.90
11221;DHT22;8517;53.546;10.104;2022-12-11T00:39:21;1.00;99.90
11221;DHT22;8517;53.546;10.104;2022-12-11T00:41:48;1.00;99.90
11221;DHT22;8517;53.546;10.104;2022-12-11T00:44:15;1.00;99.90
11221;DHT22;8517;53.546;10.104;2022-12-11T00:46:42;1.00;99.90
11221;DHT22;8517;53.546;10.104;2022-12-11T00:49:09;1.00;99.90
11221;DHT22;8517;53.546;10.104;2022-12-11T00:51:35;1.00;99.90
11221;DHT22;8517;53.546;10.104;2022-12-11T00:54:03;1.00;99.90
11221;DHT22;8517;53.546;10.104;2022-12-11T00:56:32;1.00;99.90
11221;DHT22;8517;53.546;10.104;2022-12-11T00:58:58;1.00;99.90
11221;DHT22;8517;53.546;10.104;2022-12-11T01:01:25;1.00;99.90
11221;DHT22;8517;53.546;10.104;2022-12-11T01:03:52;1.00;99.90
11221;DHT22;8517;53.546;10.104;2022-12-11T01:06:21;1.00;99.90
11221;DHT22;8517;53.546;10.104;2022-12-11T01:08:48;1.00;99.90
11221;DHT22;8517;53.546;10.104;2022-12-11T01:11:38;1.00;99.90
11221;DHT22;8517;53.546;10.104;2022-12-11T01:14:04;1.00;99.90
11221;DHT22;8517;53.546;10.104;2022-12-11T01:16:32;1.00;99.90
11221;DHT22;8517;53.546;10.104;2022-12-11T01:19:00;1.00;99.90
11221;DHT22;8517;53.546;10.104;2022-12-11T01:21:28;1.00;99.90
11221;DHT22;8517;53.546;10.104;2022-12-11T01:23:55;1.00;99.90
11221;DHT22;8517;53.546;10.104;2022-12-11T01:26:22;1.00;99.90
11221;DHT22;8517;53.546;10.104;2022-12-11T01:28:50;1.00;99.90
11221;DHT22;8517;53.546;10.104;2022-12-11T01:31:18;1.00;99.90
11221;DHT22;8517;53.546;10.104;2022-12-11T01:33:45;1.00;99.90
11221;DHT22;8517;53.546;10.104;2022-12-11T01:36:14;1.00;99.90
11221;DHT22;8517;53.546;10.104;2022-12-11T01:38:42;1.00;99.90
11221;DHT22;8517;53.546;10.104;2022-12-11T01:41:09;1.00;99.90
11221;DHT22;8517;53.546;10.104;2022-12-11T01:43:59;1.00;99.90
11221;DHT22;8517;53.546;10.104;2022-12-11T01:46:27;1.00;99.90
11221;DHT22;8517;53.546;10.104;2022-12-11T01:48:54;1.00;99.90
11221;DHT22;8517;53.546;10.104;2022-12-11T01:51:22;1.00;99.90
11221;DHT22;8517;53.546;10.104;2022-12-11T01:53:52;1.00;99.90
11221;DHT22;8517;53.546;10.104;2022-12-11T01:56:20;0.90;99.90
11221;DHT22;8517;53.546;10.104;2022-12-11T01:58:50;0.90;99.90
11221;DHT22;8517;53.546;10.104;2022-12-11T02:01:23;0.90;99.90
11221;DHT22;8517;53.546;10.104;2022-12-11T02:03:52;0.90;99.90
11221;DHT22;8517;53.546;10.104;2022-12-11T02:06:35;0.90;99.90
11221;DHT22;8517;53.546;10.104;2022-12-11T02:09:04;0.90;99.90
11221;DHT22;8517;53.546;10.104;2022-12-11T02:11:39;0.90;99.90
11221;DHT22;8517;53.546;10.104;2022-12-11T02:14:14;0.90;99.90
11221;DHT22;8517;53.546;10.104;2022-12-11T02:16:47;0.90;99.90
11221;DHT22;8517;53.546;10.104;2022-12-11T02:19:23;0.90;99.90
11221;DHT22;8517;53.546;10.104;2022-12-11T02:21:52;0.80;99.90
11221;DHT22;8517;53.546;10.104;2022-12-11T02:24:46;0.80;99.90
11221;DHT22;8517;53.546;10.104;2022-12-11T02:27:29;0.70;99.90
11221;DHT22;8517;53.546;10.104;2022-12-11T02:30:02;0.70;99.90
11221;DHT22;8517;53.546;10.104;2022-12-11T02:32:34;0.70;99.90
11221;DHT22;8517;53.546;10.104;2022-12-11T02:35:07;0.70;99.90
11221;DHT22;8517;53.546;10.104;2022-12-11T02:37:37;0.70;99.90
11221;DHT22;8517;53.546;10.104;2022-12-11T02:40:08;0.70;99.90
11221;DHT22;8517;53.546;10.104;2022-12-11T02:42:38;0.60;99.90
11221;DHT22;8517;53.546;10.104;2022-12-11T02:45:10;0.60;99.90
11221;DHT22;8517;53.546;10.104;2022-12-11T02:47:38;0.60;99.90
11221;DHT22;8517;53.546;10.104;2022-12-11T02:50:09;0.60;99.90
11221;DHT22;8517;53.546;10.104;2022-12-11T02:52:38;0.60;99.90
11221;DHT22;8517;53.546;10.104;2022-12-11T02:55:08;0.70;99.90
11221;DHT22;8517;53.546;10.104;2022-12-11T02:57:39;0.70;99.90
11221;DHT22;8517;53.546;10.104;2022-12-11T03:00:10;0.70;99.90
11221;DHT22;8517;53.546;10.104;2022-12-11T03:02:37;0.70;99.90
11221;DHT22;8517;53.546;10.104;2022-12-11T03:05:05;0.70;99.90
11221;DHT22;8517;53.546;10.104;2022-12-11T03:07:34;0.70;99.90
11221;DHT22;8517;53.546;10.104;2022-12-11T03:10:03;0.80;99.90
11221;DHT22;8517;53.546;10.104;2022-12-11T03:12:33;0.80;99.90
11221;DHT22;8517;53.546;10.104;2022-12-11T03:15:05;0.80;99.90
11221;DHT22;8517;53.546;10.104;2022-12-11T03:17:37;0.80;99.90
11221;DHT22;8517;53.546;10.104;2022-12-11T03:20:12;0.80;99.90
11221;DHT22;8517;53.546;10.104;2022-12-11T03:22:44;0.80;99.90
11221;DHT22;8517;53.546;10.104;2022-12-11T03:25:16;0.80;99.90
11221;DHT22;8517;53.546;10.104;2022-12-11T03:27:49;0.80;99.90
11221;DHT22;8517;53.546;10.104;2022-12-11T03:30:23;0.80;99.90
11221;DHT22;8517;53.546;10.104;2022-12-11T03:33:14;0.80;99.90
11221;DHT22;8517;53.546;10.104;2022-12-11T03:35:48;0.80;99.90
11221;DHT22;8517;53.546;10.104;2022-12-11T03:38:22;0.80;99.90
11221;DHT22;8517;53.546;10.104;2022-12-11T03:40:53;0.90;99.90
11221;DHT22;8517;53.546;10.104;2022-12-11T03:43:21;0.80;99.90
11221;DHT22;8517;53.546;10.104;2022-12-11T03:45:49;0.90;99.90
11221;DHT22;8517;53.546;10.104;2022-12-11T03:48:20;0.90;99.90
11221;DHT22;8517;53.546;10.104;2022-12-11T03:50:48;0.90;99.90
11221;DHT22;8517;53.546;10.104;2022-12-11T03:53:15;0.90;99.90
11221;DHT22;8517;53.546;10.104;2022-12-11T03:55:44;0.90;99.90
11221;DHT22;8517;53.546;10.104;2022-12-11T03:58:11;0.90;99.90
11221;DHT22;8517;53.546;10.104;2022-12-11T04:00:38;1.00;99.90
11221;DHT22;8517;53.546;10.104;2022-12-11T04:03:05;1.00;99.90
11221;DHT22;8517;53.546;10.104;2022-12-11T04:05:45;1.00;99.90
11221;DHT22;8517;53.546;10.104;2022-12-11T04:08:12;1.00;99.90
11221;DHT22;8517;53.546;10.104;2022-12-11T04:10:40;1.00;99.90
11221;DHT22;8517;53.546;10.104;2022-12-11T04:13:07;1.00;99.90
11221;DHT22;8517;53.546;10.104;2022-12-11T04:15:35;1.00;99.90
11221;DHT22;8517;53.546;10.104;2022-12-11T04:18:02;1.00;99.90
11221;DHT22;8517;53.546;10.104;2022-12-11T04:20:47;1.00;99.90
11221;DHT22;8517;53.546;10.104;2022-12-11T04:23:28;0.90;99.90
11221;DHT22;8517;53.546;10.104;2022-12-11T04:26:14;0.90;99.90
11221;DHT22;8517;53.546;10.104;2022-12-11T04:28:42;0.90;99.90
11221;DHT22;8517;53.546;10.104;2022-12-11T04:31:10;0.90;99.90
11221;DHT22;8517;53.546;10.104;2022-12-11T04:33:37;0.90;99.90
11221;DHT22;8517;53.546;10.104;2022-12-11T04:36:07;0.90;99.90
11221;DHT22;8517;53.546;10.104;2022-12-11T04:38:34;0.90;99.90
11221;DHT22;8517;53.546;10.104;2022-12-11T04:41:03;1.00;99.90
11221;DHT22;8517;53.546;10.104;2022-12-11T04:43:30;0.90;99.90
11221;DHT22;8517;53.546;10.104;2022-12-11T04:46:01;0.90;99.90
11221;DHT22;8517;53.546;10.104;2022-12-11T04:48:28;0.90;99.90
11221;DHT22;8517;53.546;10.104;2022-12-11T04:50:55;0.90;99.90
11221;DHT22;8517;53.546;10.104;2022-12-11T04:53:23;0.90;99.90
11221;DHT22;8517;53.546;10.104;2022-12-11T04:55:50;0.90;99.90
11221;DHT22;8517;53.546;10.104;2022-12-11T04:58:16;0.90;99.90
11221;DHT22;8517;53.546;10.104;2022-12-11T05:00:43;1.00;99.90
11221;DHT22;8517;53.546;10.104;2022-12-11T05:03:10;1.00;99.90
11221;DHT22;8517;53.546;10.104;2022-12-11T05:05:37;1.00;99.90
11221;DHT22;8517;53.546;10.104;2022-12-11T05:08:04;1.00;99.90
11221;DHT22;8517;53.546;10.104;2022-12-11T05:10:32;1.10;99.90
11221;DHT22;8517;53.546;10.104;2022-12-11T05:12:59;1.10;99.90
11221;DHT22;8517;53.546;10.104;2022-12-11T05:15:26;1.10;99.90
11221;DHT22;8517;53.546;10.104;2022-12-11T05:17:53;1.20;99.90
11221;DHT22;8517;53.546;10.104;2022-12-11T05:20:19;1.20;99.90
11221;DHT22;8517;53.546;10.104;2022-12-11T05:22:46;1.20;99.90
11221;DHT22;8517;53.546;10.104;2022-12-11T05:25:13;1.30;99.90
11221;DHT22;8517;53.546;10.104;2022-12-11T05:27:41;1.30;99.90
11221;DHT22;8517;53.546;10.104;2022-12-11T05:30:09;1.30;99.90
11221;DHT22;8517;53.546;10.104;2022-12-11T05:32:36;1.30;99.90
11221;DHT22;8517;53.546;10.104;2022-12-11T05:35:03;1.30;99.90
11221;DHT22;8517;53.546;10.104;2022-12-11T05:37:31;1.30;99.90
11221;DHT22;8517;53.546;10.104;2022-12-11T05:39:58;1.30;99.90
11221;DHT22;8517;53.546;10.104;2022-12-11T05:42:25;1.30;99.90
11221;DHT22;8517;53.546;10.104;2022-12-11T05:44:53;1.30;99.90
11221;DHT22;8517;53.546;10.104;2022-12-11T05:47:21;1.30;99.90
11221;DHT22;8517;53.546;10.104;2022-12-11T05:49:50;1.30;99.90
11221;DHT22;8517;53.546;10.104;2022-12-11T05:52:16;1.20;99.90
11221;DHT22;8517;53.546;10.104;2022-12-11T05:54:43;1.20;99.90
11221;DHT22;8517;53.546;10.104;2022-12-11T05:57:10;1.20;99.90
11221;DHT22;8517;53.546;10.104;2022-12-11T05:59:37;1.20;99.90
11221;DHT22;8517;53.546;10.104;2022-12-11T06:02:05;1.20;99.90
11221;DHT22;8517;53.546;10.104;2022-12-11T06:04:32;1.20;99.90
11221;DHT22;8517;53.546;10.104;2022-12-11T06:06:59;1.20;99.90
11221;DHT22;8517;53.546;10.104;2022-12-11T06:09:26;1.20;99.90
11221;DHT22;8517;53.546;10.104;2022-12-11T06:11:52;1.20;99.90
11221;DHT22;8517;53.546;10.104;2022-12-11T06:14:19;1.20;99.90
11221;DHT22;8517;53.546;10.104;2022-12-11T06:16:46;1.10;99.90
11221;DHT22;8517;53.546;10.104;2022-12-11T06:19:15;1.10;99.90
11221;DHT22;8517;53.546;10.104;2022-12-11T06:21:44;1.10;99.90
11221;DHT22;8517;53.546;10.104;2022-12-11T06:24:11;1.00;99.90
11221;DHT22;8517;53.546;10.104;2022-12-11T06:26:38;1.00;99.90
11221;DHT22;8517;53.546;10.104;2022-12-11T06:29:04;0.90;99.90
11221;DHT22;8517;53.546;10.104;2022-12-11T06:31:31;0.90;99.90
11221;DHT22;8517;53.546;10.104;2022-12-11T06:33:58;0.90;99.90
11221;DHT22;8517;53.546;10.104;2022-12-11T06:36:26;0.80;99.90
11221;DHT22;8517;53.546;10.104;2022-12-11T06:38:53;0.80;99.90
11221;DHT22;8517;53.546;10.104;2022-12-11T06:41:20;0.80;99.90
11221;DHT22;8517;53.546;10.104;2022-12-11T06:43:47;0.80;99.90
11221;DHT22;8517;53.546;10.104;2022-12-11T06:46:17;0.80;99.90
11221;DHT22;8517;53.546;10.104;2022-12-11T06:48:45;0.80;99.90
11221;DHT22;8517;53.546;10.104;2022-12-11T06:51:14;0.80;99.90
11221;DHT22;8517;53.546;10.104;2022-12-11T06:53:43;0.80;99.90
11221;DHT22;8517;53.546;10.104;2022-12-11T06:56:12;0.80;99.90
11221;DHT22;8517;53.546;10.104;2022-12-11T06:58:39;0.70;99.90
11221;DHT22;8517;53.546;10.104;2022-12-11T07:01:14;0.70;99.90
11221;DHT22;8517;53.546;10.104;2022-12-11T07:03:41;0.70;99.90
11221;DHT22;8517;53.546;10.104;2022-12-11T07:06:08;0.70;99.90
11221;DHT22;8517;53.546;10.104;2022-12-11T07:08:35;0.60;99.90
11221;DHT22;8517;53.546;10.104;2022-12-11T07:11:04;0.60;99.90
11221;DHT22;8517;53.546;10.104;2022-12-11T07:13:32;0.60;99.90
11221;DHT22;8517;53.546;10.104;2022-12-11T07:16:00;0.50;99.90
11221;DHT22;8517;53.546;10.104;2022-12-11T07:18:29;0.50;99.90
11221;DHT22;8517;53.546;10.104;2022-12-11T07:20:57;0.40;99.90
11221;DHT22;8517;53.546;10.104;2022-12-11T07:23:24;0.40;99.90
11221;DHT22;8517;53.546;10.104;2022-12-11T07:25:51;0.40;99.90
11221;DHT22;8517;53.546;10.104;2022-12-11T07:28:19;0.40;99.90
11221;DHT22;8517;53.546;10.104;2022-12-11T07:30:46;0.30;99.90
11221;DHT22;8517;53.546;10.104;2022-12-11T07:33:13;0.30;99.90
11221;DHT22;8517;53.546;10.104;2022-12-11T07:35:40;0.30;99.90
11221;DHT22;8517;53.546;10.104;2022-12-11T07:38:07;0.20;99.90
11221;DHT22;8517;53.546;10.104;2022-12-11T07:40:34;0.20;99.90
11221;DHT22;8517;53.546;10.104;2022-12-11T07:43:01;0.10;99.90
11221;DHT22;8517;53.546;10.104;2022-12-11T07:45:29;0.10;99.90
11221;DHT22;8517;53.546;10.104;2022-12-11T07:47:56;0.10;99.90
11221;DHT22;8517;53.546;10.104;2022-12-11T07:50:23;0.00;99.90
11221;DHT22;8517;53.546;10.104;2022-12-11T07:52:50;0.00;99.90
11221;DHT22;8517;53.546;10.104;2022-12-11T07:55:17;-0.10;99.90
11221;DHT22;8517;53.546;10.104;2022-12-11T07:57:43;-0.10;99.90
11221;DHT22;8517;53.546;10.104;2022-12-11T08:00:11;-0.10;99.90
11221;DHT22;8517;53.546;10.104;2022-12-11T08:02:39;-0.10;99.90
11221;DHT22;8517;53.546;10.104;2022-12-11T08:05:07;-0.20;99.90
11221;DHT22;8517;53.546;10.104;2022-12-11T08:07:34;-0.20;99.90
11221;DHT22;8517;53.546;10.104;2022-12-11T08:10:02;-0.20;99.90
11221;DHT22;8517;53.546;10.104;2022-12-11T08:12:29;-0.20;99.90
11221;DHT22;8517;53.546;10.104;2022-12-11T08:14:55;-0.20;99.90
11221;DHT22;8517;53.546;10.104;2022-12-11T08:17:22;-0.20;99.90
11221;DHT22;8517;53.546;10.104;2022-12-11T08:19:50;-0.30;99.90
11221;DHT22;8517;53.546;10.104;2022-12-11T08:22:17;-0.30;99.90
11221;DHT22;8517;53.546;10.104;2022-12-11T08:24:45;-0.30;99.90
11221;DHT22;8517;53.546;10.104;2022-12-11T08:27:12;-0.20;99.90
11221;DHT22;8517;53.546;10.104;2022-12-11T08:29:39;-0.30;99.90
11221;DHT22;8517;53.546;10.104;2022-12-11T08:32:06;-0.30;99.90
11221;DHT22;8517;53.546;10.104;2022-12-11T08:34:33;-0.30;99.90
11221;DHT22;8517;53.546;10.104;2022-12-11T08:37:01;-0.20;99.90
11221;DHT22;8517;53.546;10.104;2022-12-11T08:39:28;-0.20;99.90
11221;DHT22;8517;53.546;10.104;2022-12-11T08:41:55;-0.20;99.90
11221;DHT22;8517;53.546;10.104;2022-12-11T08:44:22;-0.20;99.90
11221;DHT22;8517;53.546;10.104;2022-12-11T08:46:49;-0.20;99.90
11221;DHT22;8517;53.546;10.104;2022-12-11T08:49:16;-0.20;99.90
11221;DHT22;8517;53.546;10.104;2022-12-11T08:51:43;-0.20;99.90
11221;DHT22;8517;53.546;10.104;2022-12-11T08:54:11;-0.30;99.90
11221;DHT22;8517;53.546;10.104;2022-12-11T08:56:38;-0.20;99.90
11221;DHT22;8517;53.546;10.104;2022-12-11T08:59:04;-0.20;99.90
11221;DHT22;8517;53.546;10.104;2022-12-11T09:01:31;-0.20;99.90
11221;DHT22;8517;53.546;10.104;2022-12-11T09:03:58;-0.10;99.90
11221;DHT22;8517;53.546;10.104;2022-12-11T09:06:28;-0.10;99.90
11221;DHT22;8517;53.546;10.104;2022-12-11T09:09:00;-0.10;99.90
11221;DHT22;8517;53.546;10.104;2022-12-11T09:11:31;0.00;99.90
11221;DHT22;8517;53.546;10.104;2022-12-11T09:13:59;0.10;99.90
11221;DHT22;8517;53.546;10.104;2022-12-11T09:16:27;0.30;99.90
11221;DHT22;8517;53.546;10.104;2022-12-11T09:19:02;0.40;99.90
11221;DHT22;8517;53.546;10.104;2022-12-11T09:21:29;0.60;99.90
11221;DHT22;8517;53.546;10.104;2022-12-11T09:23:59;0.80;99.90
11221;DHT22;8517;53.546;10.104;2022-12-11T09:26:28;1.10;99.90
11221;DHT22;8517;53.546;10.104;2022-12-11T09:28:57;1.40;99.90
11221;DHT22;8517;53.546;10.104;2022-12-11T09:31:29;1.80;99.90
11221;DHT22;8517;53.546;10.104;2022-12-11T09:33:59;2.20;99.90
11221;DHT22;8517;53.546;10.104;2022-12-11T09:36:26;2.50;99.90
11221;DHT22;8517;53.546;10.104;2022-12-11T09:38:54;2.70;99.90
11221;DHT22;8517;53.546;10.104;2022-12-11T09:41:39;2.90;99.90
11221;DHT22;8517;53.546;10.104;2022-12-11T09:44:29;3.20;99.90
11221;DHT22;8517;53.546;10.104;2022-12-11T09:46:59;3.60;99.90
11221;DHT22;8517;53.546;10.104;2022-12-11T09:49:33;4.00;99.90
11221;DHT22;8517;53.546;10.104;2022-12-11T09:52:10;4.40;99.90
11221;DHT22;8517;53.546;10.104;2022-12-11T09:54:42;4.80;99.90
11221;DHT22;8517;53.546;10.104;2022-12-11T09:57:23;5.20;99.90
11221;DHT22;8517;53.546;10.104;2022-12-11T10:00:03;5.60;99.90
11221;DHT22;8517;53.546;10.104;2022-12-11T10:02:59;5.90;99.90
11221;DHT22;8517;53.546;10.104;2022-12-11T10:05:31;6.30;99.90
11221;DHT22;8517;53.546;10.104;2022-12-11T10:08:07;6.60;99.90
11221;DHT22;8517;53.546;10.104;2022-12-11T10:10:40;6.80;99.90
11221;DHT22;8517;53.546;10.104;2022-12-11T10:13:16;7.00;99.90
11221;DHT22;8517;53.546;10.104;2022-12-11T10:15:51;7.20;99.90
11221;DHT22;8517;53.546;10.104;2022-12-11T10:18:22;7.20;99.90
11221;DHT22;8517;53.546;10.104;2022-12-11T10:20:51;7.30;99.90
11221;DHT22;8517;53.546;10.104;2022-12-11T10:23:20;7.20;99.90
11221;DHT22;8517;53.546;10.104;2022-12-11T10:25:51;7.10;99.90
11221;DHT22;8517;53.546;10.104;2022-12-11T10:28:21;6.90;99.90
11221;DHT22;8517;53.546;10.104;2022-12-11T10:30:53;6.80;99.90
11221;DHT22;8517;53.546;10.104;2022-12-11T10:33:36;6.50;99.90
11221;DHT22;8517;53.546;10.104;2022-12-11T10:36:06;6.20;99.90
11221;DHT22;8517;53.546;10.104;2022-12-11T10:38:38;5.90;99.90
11221;DHT22;8517;53.546;10.104;2022-12-11T10:41:11;5.60;99.90
11221;DHT22;8517;53.546;10.104;2022-12-11T10:43:41;5.40;99.90
11221;DHT22;8517;53.546;10.104;2022-12-11T10:46:16;5.20;99.90
11221;DHT22;8517;53.546;10.104;2022-12-11T10:48:51;4.90;99.90
11221;DHT22;8517;53.546;10.104;2022-12-11T10:51:20;4.90;99.90
11221;DHT22;8517;53.546;10.104;2022-12-11T10:53:51;4.70;99.90
11221;DHT22;8517;53.546;10.104;2022-12-11T10:56:26;4.70;99.90
11221;DHT22;8517;53.546;10.104;2022-12-11T10:58:58;4.70;99.90
11221;DHT22;8517;53.546;10.104;2022-12-11T11:01:28;4.90;99.90
11221;DHT22;8517;53.546;10.104;2022-12-11T11:03:57;5.10;99.90
11221;DHT22;8517;53.546;10.104;2022-12-11T11:06:26;5.30;99.90
11221;DHT22;8517;53.546;10.104;2022-12-11T11:08:54;5.40;99.90
11221;DHT22;8517;53.546;10.104;2022-12-11T11:11:25;5.40;99.90
11221;DHT22;8517;53.546;10.104;2022-12-11T11:14:06;5.30;99.90
11221;DHT22;8517;53.546;10.104;2022-12-11T11:16:35;5.30;99.90
11221;DHT22;8517;53.546;10.104;2022-12-11T11:19:03;5.40;99.90
11221;DHT22;8517;53.546;10.104;2022-12-11T11:21:32;5.60;99.90
11221;DHT22;8517;53.546;10.104;2022-12-11T11:23:59;5.70;99.90
11221;DHT22;8517;53.546;10.104;2022-12-11T11:26:35;5.90;99.90
11221;DHT22;8517;53.546;10.104;2022-12-11T11:29:26;6.10;99.90
11221;DHT22;8517;53.546;10.104;2022-12-11T11:31:54;6.40;99.90
11221;DHT22;8517;53.546;10.104;2022-12-11T11:34:21;6.60;99.90
11221;DHT22;8517;53.546;10.104;2022-12-11T11:36:55;6.60;99.90
11221;DHT22;8517;53.546;10.104;2022-12-11T11:39:26;6.70;99.90
11221;DHT22;8517;53.546;10.104;2022-12-11T11:41:59;6.70;99.90
11221;DHT22;8517;53.546;10.104;2022-12-11T11:44:33;6.60;99.90
11221;DHT22;8517;53.546;10.104;2022-12-11T11:47:04;6.40;99.90
11221;DHT22;8517;53.546;10.104;2022-12-11T11:49:47;6.30;99.90
11221;DHT22;8517;53.546;10.104;2022-12-11T11:52:27;6.10;99.90
11221;DHT22;8517;53.546;10.104;2022-12-11T11:55:02;5.90;99.90
11221;DHT22;8517;53.546;10.104;2022-12-11T11:57:37;5.70;99.90
11221;DHT22;8517;53.546;10.104;2022-12-11T12:00:19;5.70;99.90
11221;DHT22;8517;53.546;10.104;2022-12-11T12:02:47;5.60;99.90
11221;DHT22;8517;53.546;10.104;2022-12-11T12:05:18;5.70;99.90
11221;DHT22;8517;53.546;10.104;2022-12-11T12:07:52;5.70;99.90
11221;DHT22;8517;53.546;10.104;2022-12-11T12:10:25;5.70;99.90
11221;DHT22;8517;53.546;10.104;2022-12-11T12:13:23;5.70;99.90
11221;DHT22;8517;53.546;10.104;2022-12-11T12:15:58;5.60;99.90
11221;DHT22;8517;53.546;10.104;2022-12-11T12:18:34;5.40;99.90
11221;DHT22;8517;53.546;10.104;2022-12-11T12:21:14;5.20;99.90
11221;DHT22;8517;53.546;10.104;2022-12-11T12:23:55;5.00;99.90
11221;DHT22;8517;53.546;10.104;2022-12-11T12:26:26;5.00;99.90
11221;DHT22;8517;53.546;10.104;2022-12-11T12:29:03;4.90;99.90
11221;DHT22;8517;53.546;10.104;2022-12-11T12:31:48;4.80;99.90
11221;DHT22;8517;53.546;10.104;2022-12-11T12:34:24;4.60;99.90
11221;DHT22;8517;53.546;10.104;2022-12-11T12:36:58;4.40;99.90
11221;DHT22;8517;53.546;10.104;2022-12-11T12:39:36;4.30;99.90
11221;DHT22;8517;53.546;10.104;2022-12-11T12:42:14;4.20;99.90
11221;DHT22;8517;53.546;10.104;2022-12-11T12:45:14;4.10;99.90
11221;DHT22;8517;53.546;10.104;2022-12-11T12:47:59;4.00;99.90
11221;DHT22;8517;53.546;10.104;2022-12-11T12:50:35;4.00;99.90
11221;DHT22;8517;53.546;10.104;2022-12-11T12:53:04;4.00;99.90
11221;DHT22;8517;53.546;10.104;2022-12-11T12:55:35;4.00;99.90
11221;DHT22;8517;53.546;10.104;2022-12-11T12:58:29;4.00;99.90
11221;DHT22;8517;53.546;10.104;2022-12-11T13:04:35;3.90;99.90
11221;DHT22;8517;53.546;10.104;2022-12-11T13:07:16;3.90;99.90
11221;DHT22;8517;53.546;10.104;2022-12-11T13:09:55;3.80;99.90
11221;DHT22;8517;53.546;10.104;2022-12-11T13:12:31;3.80;99.90
11221;DHT22;8517;53.546;10.104;2022-12-11T13:14:58;3.70;99.90
11221;DHT22;8517;53.546;10.104;2022-12-11T13:18:29;3.70;99.90
11221;DHT22;8517;53.546;10.104;2022-12-11T13:21:29;3.60;99.90
11221;DHT22;8517;53.546;10.104;2022-12-11T13:24:13;3.70;99.90
11221;DHT22;8517;53.546;10.104;2022-12-11T13:26:41;3.60;99.90
11221;DHT22;8517;53.546;10.104;2022-12-11T13:29:28;3.60;99.90
11221;DHT22;8517;53.546;10.104;2022-12-11T13:31:56;3.60;99.90
11221;DHT22;8517;53.546;10.104;2022-12-11T13:34:24;3.60;99.90
11221;DHT22;8517;53.546;10.104;2022-12-11T13:37:28;3.60;99.90
11221;DHT22;8517;53.546;10.104;2022-12-11T13:40:07;3.60;99.90
11221;DHT22;8517;53.546;10.104;2022-12-11T13:42:53;3.60;99.90
11221;DHT22;8517;53.546;10.104;2022-12-11T13:45:26;3.60;99.90
11221;DHT22;8517;53.546;10.104;2022-12-11T13:47:55;3.60;99.90
11221;DHT22;8517;53.546;10.104;2022-12-11T13:50:31;3.60;99.90
11221;DHT22;8517;53.546;10.104;2022-12-11T13:53:01;3.60;99.90
11221;DHT22;8517;53.546;10.104;2022-12-11T13:55:31;3.50;99.90
11221;DHT22;8517;53.546;10.104;2022-12-11T13:57:58;3.40;99.90
11221;DHT22;8517;53.546;10.104;2022-12-11T14:00:27;3.30;99.90
11221;DHT22;8517;53.546;10.104;2022-12-11T14:02:58;3.30;99.90
11221;DHT22;8517;53.546;10.104;2022-12-11T14:05:27;3.30;99.90
11221;DHT22;8517;53.546;10.104;2022-12-11T14:08:08;3.20;99.90
11221;DHT22;8517;53.546;10.104;2022-12-11T14:10:35;3.20;99.90
11221;DHT22;8517;53.546;10.104;2022-12-11T14:13:05;3.20;99.90
11221;DHT22;8517;53.546;10.104;2022-12-11T14:15:41;3.10;99.90
11221;DHT22;8517;53.546;10.104;2022-12-11T14:18:21;3.10;99.90
11221;DHT22;8517;53.546;10.104;2022-12-11T14:21:16;3.10;99.90
11221;DHT22;8517;53.546;10.104;2022-12-11T14:23:51;3.10;99.90
11221;DHT22;8517;53.546;10.104;2022-12-11T14:26:20;3.00;99.90
11221;DHT22;8517;53.546;10.104;2022-12-11T14:28:47;3.00;99.90
11221;DHT22;8517;53.546;10.104;2022-12-11T14:31:17;3.00;99.90
11221;DHT22;8517;53.546;10.104;2022-12-11T14:33:49;3.00;99.90
11221;DHT22;8517;53.546;10.104;2022-12-11T14:36:38;3.10;99.90
11221;DHT22;8517;53.546;10.104;2022-12-11T14:39:18;3.10;99.90
11221;DHT22;8517;53.546;10.104;2022-12-11T14:41:48;3.10;99.90
11221;DHT22;8517;53.546;10.104;2022-12-11T14:44:20;3.10;99.90
11221;DHT22;8517;53.546;10.104;2022-12-11T14:46:50;3.10;99.90
11221;DHT22;8517;53.546;10.104;2022-12-11T14:49:36;3.10;99.90
11221;DHT22;8517;53.546;10.104;2022-12-11T14:52:14;3.20;99.90
11221;DHT22;8517;53.546;10.104;2022-12-11T14:54:59;3.20;99.90
11221;DHT22;8517;53.546;10.104;2022-12-11T14:57:35;3.20;99.90
11221;DHT22;8517;53.546;10.104;2022-12-11T15:03:34;3.20;99.90
11221;DHT22;8517;53.546;10.104;2022-12-11T15:06:27;3.30;99.90
11221;DHT22;8517;53.546;10.104;2022-12-11T15:09:25;3.30;99.90
11221;DHT22;8517;53.546;10.104;2022-12-11T15:12:15;3.20;99.90
11221;DHT22;8517;53.546;10.104;2022-12-11T15:14:48;3.20;99.90
11221;DHT22;8517;53.546;10.104;2022-12-11T15:17:16;3.20;99.90
11221;DHT22;8517;53.546;10.104;2022-12-11T15:19:46;3.10;99.90
11221;DHT22;8517;53.546;10.104;2022-12-11T15:22:16;3.10;99.90
11221;DHT22;8517;53.546;10.104;2022-12-11T15:24:53;3.10;99.90
11221;DHT22;8517;53.546;10.104;2022-12-11T15:30:42;3.10;99.90
11221;DHT22;8517;53.546;10.104;2022-12-11T15:33:19;3.10;99.90
11221;DHT22;8517;53.546;10.104;2022-12-11T15:39:03;3.10;99.90
11221;DHT22;8517;53.546;10.104;2022-12-11T15:41:55;3.10;99.90
11221;DHT22;8517;53.546;10.104;2022-12-11T15:44:22;3.10;99.90
11221;DHT22;8517;53.546;10.104;2022-12-11T15:46:54;3.10;99.90
11221;DHT22;8517;53.546;10.104;2022-12-11T15:49:23;3.10;99.90
11221;DHT22;8517;53.546;10.104;2022-12-11T15:51:50;3.10;99.90
11221;DHT22;8517;53.546;10.104;2022-12-11T15:54:18;3.10;99.90
11221;DHT22;8517;53.546;10.104;2022-12-11T15:56:45;3.10;99.90
11221;DHT22;8517;53.546;10.104;2022-12-11T15:59:13;3.10;99.90
11221;DHT22;8517;53.546;10.104;2022-12-11T16:01:40;3.10;99.90
11221;DHT22;8517;53.546;10.104;2022-12-11T16:04:08;3.10;99.90
11221;DHT22;8517;53.546;10.104;2022-12-11T16:06:36;3.10;99.90
11221;DHT22;8517;53.546;10.104;2022-12-11T16:09:05;3.10;99.90
11221;DHT22;8517;53.546;10.104;2022-12-11T16:11:32;3.10;99.90
11221;DHT22;8517;53.546;10.104;2022-12-11T16:13:59;3.10;99.90
11221;DHT22;8517;53.546;10.104;2022-12-11T16:16:28;3.00;99.90
11221;DHT22;8517;53.546;10.104;2022-12-11T16:18:55;3.00;99.90
11221;DHT22;8517;53.546;10.104;2022-12-11T16:21:25;3.10;99.90
11221;DHT22;8517;53.546;10.104;2022-12-11T16:23:55;3.10;99.90